createdAt,value
2019-05-21T00:01:34.792Z,97679.20
2019-05-21T00:06:41.075Z,97680.16
2019-05-21T00:11:46.380Z,97680.16
2019-05-21T00:16:52.038Z,97673.55
2019-05-21T00:21:57.349Z,97671.20
2019-05-21T00:27:02.640Z,97674.36
2019-05-21T00:32:43.777Z,97671.02
2019-05-21T00:38:25.015Z,97684.58
2019-05-21T00:43:41.036Z,97689.27
2019-05-21T00:48:46.384Z,97681.23
2019-05-21T00:53:51.659Z,97689.08
2019-05-21T00:58:57.196Z,97678.05
2019-05-21T01:04:02.707Z,97667.19
2019-05-21T01:09:09.098Z,97666.00
2019-05-21T01:14:14.607Z,97659.98
2019-05-21T01:19:19.853Z,97643.92
2019-05-21T01:24:25.145Z,97639.20
2019-05-21T01:29:30.432Z,97631.00
2019-05-21T01:34:35.860Z,97633.86
2019-05-21T01:39:42.444Z,97634.34
2019-05-21T01:44:47.693Z,97634.34
2019-05-21T01:49:52.982Z,97633.86
2019-05-21T01:54:58.319Z,97638.36
2019-05-21T02:00:03.815Z,97622.30
2019-05-21T02:05:09.142Z,97616.10
2019-05-21T02:10:14.676Z,97596.53
2019-05-21T02:15:19.922Z,97590.02
2019-05-21T02:20:25.506Z,97594.89
2019-05-21T02:30:30.000Z,97625.61
2019-05-21T02:35:52.841Z,97635.95
2019-05-21T02:40:42.934Z,97638.44
2019-05-21T02:45:49.148Z,97638.42
2019-05-21T02:50:54.511Z,97631.22
2019-05-21T02:55:59.992Z,97638.22
2019-05-21T03:01:21.801Z,97641.42
2019-05-21T03:06:27.061Z,97636.73
2019-05-21T03:11:32.284Z,97625.83
2019-05-21T03:16:38.592Z,97619.62
2019-05-21T03:21:43.930Z,97640.31
2019-05-21T03:26:49.195Z,97651.86
2019-05-21T03:31:54.474Z,97657.47
2019-05-21T03:37:00.092Z,97647.97
2019-05-21T03:42:05.347Z,97646.95
2019-05-21T03:47:11.784Z,97652.13
2019-05-21T03:52:16.991Z,97654.31
2019-05-21T03:57:22.278Z,97650.98
2019-05-21T04:02:27.498Z,97666.00
2019-05-21T04:07:32.834Z,97672.14
2019-05-21T04:12:38.106Z,97672.67
2019-05-21T04:18:07.025Z,97661.31
2019-05-21T04:23:12.457Z,97673.12
2019-05-21T04:28:17.681Z,97666.64
2019-05-21T04:33:23.040Z,97673.23
2019-05-21T04:38:28.740Z,97681.92
2019-05-21T04:43:33.975Z,97675.09
2019-05-21T04:48:39.585Z,97679.25
2019-05-21T04:53:44.945Z,97690.41
2019-05-21T04:58:50.178Z,97686.61
2019-05-21T05:03:55.449Z,97688.53
2019-05-21T05:09:00.692Z,97692.54
2019-05-21T05:14:07.689Z,97684.91
2019-05-21T05:19:12.932Z,97695.09
2019-05-21T05:24:18.474Z,97693.12
2019-05-21T05:29:23.921Z,97699.59
2019-05-21T05:34:29.290Z,97684.25
2019-05-21T05:39:34.877Z,97697.61
2019-05-21T05:44:40.187Z,97702.95
2019-05-21T05:49:48.911Z,97716.62
2019-05-21T05:54:54.234Z,97708.10
2019-05-21T05:59:59.523Z,97711.11
2019-05-21T06:05:05.417Z,97714.10
2019-05-21T06:10:10.978Z,97715.81
2019-05-21T06:15:16.653Z,97717.13
2019-05-21T06:20:22.243Z,97726.19
2019-05-21T06:25:27.495Z,97720.89
2019-05-21T06:30:32.756Z,97710.22
2019-05-21T06:35:37.994Z,97723.08
2019-05-21T06:40:43.310Z,97719.48
2019-05-21T06:45:49.617Z,97722.94
2019-05-21T06:50:54.915Z,97728.28
2019-05-21T06:56:00.230Z,97740.84
2019-05-21T07:01:05.456Z,97725.00
2019-05-21T07:06:10.693Z,97740.73
2019-05-21T07:11:15.909Z,97751.23
2019-05-21T07:16:21.141Z,97769.45
2019-05-21T07:21:26.390Z,97764.00
2019-05-21T07:26:32.299Z,97769.55
2019-05-21T07:31:37.977Z,97776.48
2019-05-21T07:36:43.289Z,97788.45
2019-05-21T07:41:48.665Z,97795.95
2019-05-21T07:46:53.972Z,97795.87
2019-05-21T07:51:59.205Z,97800.52
2019-05-21T07:57:05.233Z,97808.64
2019-05-21T08:02:10.459Z,97825.80
2019-05-21T08:07:15.709Z,97827.30
2019-05-21T08:12:37.349Z,97818.32
2019-05-21T08:17:27.900Z,97822.81
2019-05-21T08:22:33.627Z,97835.15
2019-05-21T08:27:38.857Z,97831.64
2019-05-21T08:32:44.477Z,97841.64
2019-05-21T08:37:49.969Z,97851.87
2019-05-21T08:42:55.235Z,97855.88
2019-05-21T08:48:00.551Z,97851.45
2019-05-21T08:53:06.006Z,97850.45
2019-05-21T08:58:11.610Z,97849.35
2019-05-21T09:03:16.834Z,97870.84
2019-05-21T09:08:22.127Z,97869.35
2019-05-21T09:13:27.708Z,97891.05
2019-05-21T09:18:33.019Z,97885.88
2019-05-21T09:23:39.396Z,97889.39
2019-05-21T09:28:45.008Z,97909.61
2019-05-21T09:33:50.261Z,97916.95
2019-05-21T09:38:55.542Z,97929.85
2019-05-21T09:44:00.866Z,97924.08
2019-05-21T09:49:06.149Z,97940.77
2019-05-21T09:54:11.645Z,97933.94
2019-05-21T09:59:39.258Z,97943.78
2019-05-21T10:04:44.832Z,97953.27
2019-05-21T10:09:50.052Z,97956.21
2019-05-21T10:14:55.552Z,97959.14
2019-05-21T10:20:00.769Z,97962.78
2019-05-21T10:25:06.643Z,97969.06
2019-05-21T10:30:12.743Z,97968.36
2019-05-21T10:35:18.006Z,97984.67
2019-05-21T10:40:23.277Z,97978.84
2019-05-21T10:45:28.589Z,97986.45
2019-05-21T10:50:33.927Z,97997.11
2019-05-21T10:55:39.251Z,98012.22
2019-05-21T11:00:46.270Z,98016.95
2019-05-21T11:06:09.027Z,98035.84
2019-05-21T11:11:01.127Z,98046.59
2019-05-21T11:16:06.703Z,98057.53
2019-05-21T11:21:12.076Z,98046.39
2019-05-21T11:26:17.341Z,98067.28
2019-05-21T11:31:22.656Z,98065.57
2019-05-21T11:36:28.227Z,98086.91
2019-05-21T11:41:33.955Z,98076.82
2019-05-21T11:46:39.205Z,98093.16
2019-05-21T11:51:44.725Z,98100.88
2019-05-21T11:56:50.240Z,98086.61
2019-05-21T12:01:55.538Z,98093.72
2019-05-21T12:07:03.228Z,98088.20
2019-05-21T12:12:07.852Z,98084.54
2019-05-21T12:17:13.121Z,98094.28
2019-05-21T12:22:18.377Z,98105.09
2019-05-21T12:27:24.440Z,98112.89
2019-05-21T12:32:29.789Z,98124.88
2019-05-21T12:37:35.054Z,98135.39
2019-05-21T12:42:40.363Z,98144.06
2019-05-21T12:47:45.630Z,98154.66
2019-05-21T12:52:51.014Z,98165.39
2019-05-21T12:57:56.366Z,98159.02
2019-05-21T13:03:02.970Z,98167.03
2019-05-21T13:08:08.288Z,98173.63
2019-05-21T13:13:13.565Z,98171.34
2019-05-21T13:18:18.836Z,98184.32
2019-05-21T13:23:24.099Z,98183.42
2019-05-21T13:28:29.397Z,98186.96
2019-05-21T13:33:34.673Z,98198.52
2019-05-21T13:38:40.061Z,98204.30
2019-05-21T13:43:45.535Z,98202.48
2019-05-21T13:48:52.147Z,98214.21
2019-05-21T13:53:57.501Z,98217.36
2019-05-21T13:59:02.809Z,98232.15
2019-05-21T14:04:08.624Z,98236.30
2019-05-21T14:09:14.027Z,98236.55
2019-05-21T14:14:19.639Z,98237.88
2019-05-21T14:19:24.962Z,98238.23
2019-05-21T14:24:30.273Z,98236.55
2019-05-21T14:29:35.954Z,98239.95
2019-05-21T14:34:41.060Z,98242.03
2019-05-21T14:39:47.101Z,98246.55
2019-05-21T14:44:53.235Z,98238.06
2019-05-21T14:49:58.596Z,98245.17
2019-05-21T14:55:04.445Z,98255.14
2019-05-21T15:00:20.213Z,98253.57
2019-05-21T15:05:26.332Z,98250.55
2019-05-21T15:10:47.316Z,98251.38
2019-05-21T15:15:40.433Z,98254.18
2019-05-21T15:21:04.142Z,98259.27
2019-05-21T15:26:09.716Z,98254.64
2019-05-21T15:31:14.912Z,98261.70
2019-05-21T15:36:20.590Z,98268.36
2019-05-21T15:41:25.906Z,98273.30
2019-05-21T15:46:47.233Z,98276.75
2019-05-21T15:51:38.699Z,98280.66
2019-05-21T15:56:43.955Z,98282.69
2019-05-21T16:01:49.371Z,98286.64
2019-05-21T16:06:54.605Z,98297.40
2019-05-21T16:12:00.131Z,98312.38
2019-05-21T16:17:06.116Z,98316.20
2019-05-21T16:22:11.412Z,98326.09
2019-05-21T16:27:19.461Z,98319.80
2019-05-21T16:32:25.244Z,98326.72
2019-05-21T16:37:31.648Z,98334.91
2019-05-21T16:42:37.283Z,98334.27
2019-05-21T16:47:46.202Z,98336.31
2019-05-21T16:52:50.681Z,98335.25
2019-05-21T16:57:56.820Z,98324.69
2019-05-21T17:03:02.374Z,98315.27
2019-05-21T17:08:08.052Z,98321.95
2019-05-21T17:13:13.855Z,98331.94
2019-05-21T17:18:19.517Z,98339.26
2019-05-21T17:23:24.747Z,98344.73
2019-05-21T17:28:30.449Z,98343.69
2019-05-21T17:33:36.024Z,98355.55
2019-05-21T17:38:41.975Z,98360.70
2019-05-21T17:43:47.640Z,98363.95
2019-05-21T17:48:53.175Z,98363.31
2019-05-21T17:53:59.237Z,98360.53
2019-05-21T17:59:04.559Z,98366.51
2019-05-21T18:04:10.099Z,98368.89
2019-05-21T18:09:17.007Z,98376.92
2019-05-21T18:14:23.967Z,98378.13
2019-05-21T18:19:30.396Z,98382.08
2019-05-21T18:24:35.847Z,98380.33
2019-05-21T18:29:41.276Z,98382.67
2019-05-21T18:34:46.584Z,98398.05
2019-05-21T18:39:54.340Z,98408.58
2019-05-21T18:44:59.882Z,98412.46
2019-05-21T18:50:05.773Z,98416.02
2019-05-21T18:55:12.253Z,98423.28
2019-05-21T19:00:20.240Z,98428.78
2019-05-21T19:05:25.741Z,98435.53
2019-05-21T19:10:31.680Z,98431.80
2019-05-21T19:15:38.006Z,98436.64
2019-05-21T19:20:44.731Z,98447.84
2019-05-21T19:25:50.974Z,98453.67
2019-05-21T19:30:58.306Z,98459.23
2019-05-21T19:36:03.633Z,98472.44
2019-05-21T19:41:08.961Z,98467.95
2019-05-21T19:46:14.676Z,98477.02
2019-05-21T19:51:20.094Z,98488.00
2019-05-21T19:56:25.695Z,98494.11
2019-05-21T20:01:32.006Z,98495.31
2019-05-21T20:06:39.022Z,98500.16
2019-05-21T20:11:44.741Z,98498.81
2019-05-21T20:16:51.114Z,98505.02
2019-05-21T20:21:58.236Z,98510.44
2019-05-21T20:27:05.631Z,98509.15
2019-05-21T20:32:16.210Z,98520.89
2019-05-21T20:37:26.517Z,98524.15
2019-05-21T20:42:32.622Z,98527.03
2019-05-21T20:47:38.614Z,98525.81
2019-05-21T20:52:45.004Z,98528.02
2019-05-21T20:57:50.787Z,98522.44
2019-05-21T21:02:57.369Z,98527.06
2019-05-21T21:08:03.621Z,98525.40
2019-05-21T21:13:11.472Z,98519.28
2019-05-21T21:18:18.372Z,98516.16
2019-05-21T21:23:25.680Z,98539.16
2019-05-21T21:28:31.773Z,98517.61
2019-05-21T21:33:38.173Z,98520.75
2019-05-21T21:38:44.843Z,98523.50
2019-05-21T21:43:50.293Z,98527.56
2019-05-21T21:48:56.036Z,98530.04
2019-05-21T21:54:02.624Z,98522.14
2019-05-21T21:59:08.379Z,98517.78
2019-05-21T22:04:16.510Z,98536.02
2019-05-21T22:09:33.672Z,98532.13
2019-05-21T22:14:50.430Z,98538.98
2019-05-21T22:19:51.715Z,98546.27
2019-05-21T22:24:57.321Z,98549.57
2019-05-21T22:30:02.734Z,98548.46
2019-05-21T22:35:08.408Z,98546.75
2019-05-21T22:40:14.409Z,98544.86
2019-05-21T22:45:19.810Z,98542.26
2019-05-21T22:50:25.824Z,98548.72
2019-05-21T22:55:31.041Z,98542.55
2019-05-21T23:02:28.855Z,98545.74
2019-05-21T23:07:34.124Z,98546.45
2019-05-21T23:12:39.558Z,98536.19
2019-05-21T23:17:45.191Z,98547.45
2019-05-21T23:23:01.184Z,98539.95
2019-05-21T23:28:08.227Z,98538.41
2019-05-21T23:33:14.303Z,98532.84
2019-05-21T23:38:20.348Z,98528.98
2019-05-21T23:43:26.460Z,98527.15
2019-05-21T23:48:32.101Z,98532.69
2019-05-21T23:53:38.333Z,98522.86
2019-05-21T23:58:43.973Z,98538.10
